Time;durP1;ratioP1;P1;durP2;ratioP2;P2;SDS_P1;SDS_P2;PMS_P1;PMS_P2;Temp;Humidity;BMP_temperature;BMP_pressure;BME280_temperature;BME280_humidity;BME280_pressure;Samples;Min_cycle;Max_cycle;Signal;HPM_P1;HPM_P2
2022/04/08 00:00:58;;;;;;;5.88;1.10;;;;;;;;;;4960328;28;20102;-83
2022/04/08 00:03:25;;;;;;;5.03;1.20;;;;;;;;;;4966493;28;20034;-84
2022/04/08 00:05:52;;;;;;;5.65;1.30;;;;;;;;;;4973965;28;20047;-84
2022/04/08 00:08:18;;;;;;;4.72;1.08;;;;;;;;;;4962006;28;20041;-84
2022/04/08 00:10:44;;;;;;;6.55;1.58;;;;;;;;;;4980832;28;20483;-83
2022/04/08 00:13:09;;;;;;;4.43;1.40;;;;;;;;;;4975469;28;20037;-84
2022/04/08 00:15:36;;;;;;;7.38;1.40;;;;;;;;;;4976067;28;20417;-83
2022/04/08 00:18:01;;;;;;;3.57;1.20;;;;;;;;;;4965540;28;20043;-84
2022/04/08 00:20:26;;;;;;;3.60;1.15;;;;;;;;;;4975550;28;20049;-84
2022/04/08 00:22:52;;;;;;;5.13;1.80;;;;;;;;;;4963943;28;20383;-83
2022/04/08 00:25:17;;;;;;;3.42;1.30;;;;;;;;;;4976289;28;20058;-83
2022/04/08 00:27:45;;;;;;;5.15;1.50;;;;;;;;;;4958943;28;20073;-83
2022/04/08 00:30:11;;;;;;;5.63;1.67;;;;;;;;;;4972683;28;20034;-84
2022/04/08 00:32:36;;;;;;;4.82;1.60;;;;;;;;;;4972728;28;20049;-83
2022/04/08 00:35:01;;;;;;;2.42;1.27;;;;;;;;;;4981807;28;20037;-84
2022/04/08 00:37:27;;;;;;;3.83;1.27;;;;;;;;;;4965228;28;20031;-84
2022/04/08 00:39:52;;;;;;;4.28;1.33;;;;;;;;;;4980820;28;20046;-84
2022/04/08 00:42:17;;;;;;;4.32;1.42;;;;;;;;;;4976062;28;20070;-84
2022/04/08 00:44:43;;;;;;;5.55;1.40;;;;;;;;;;4978340;28;20039;-84
2022/04/08 00:47:08;;;;;;;4.93;1.40;;;;;;;;;;4976253;28;20043;-83
2022/04/08 00:49:36;;;;;;;4.47;1.13;;;;;;;;;;4968392;28;20046;-83
2022/04/08 00:52:01;;;;;;;3.65;1.20;;;;;;;;;;4982962;28;20070;-82
2022/04/08 00:54:30;;;;;;;4.40;1.10;;;;;;;;;;4966948;28;20462;-83
2022/04/08 00:56:59;;;;;;;4.45;0.93;;;;;;;;;;4965908;28;20061;-83
2022/04/08 00:59:25;;;;;;;2.60;0.98;;;;;;;;;;4978505;28;20162;-83
2022/04/08 01:01:51;;;;;;;3.35;1.10;;;;;;;;;;4978667;28;20038;-83
2022/04/08 01:04:16;;;;;;;2.10;0.90;;;;;;;;;;4968450;28;20482;-84
2022/04/08 01:06:42;;;;;;;3.92;1.05;;;;;;;;;;4980527;28;20133;-84
2022/04/08 01:09:07;;;;;;;2.42;0.82;;;;;;;;;;4984237;28;20108;-84
2022/04/08 01:11:33;;;;;;;3.70;1.00;;;;;;;;;;4980424;28;20042;-84
2022/04/08 01:14:07;;;;;;;4.00;0.88;;;;;;;;;;4977928;28;20047;-84
2022/04/08 01:16:33;;;;;;;5.28;1.08;;;;;;;;;;4984830;28;20058;-84
2022/04/08 01:18:58;;;;;;;4.25;0.90;;;;;;;;;;4978118;28;20406;-85
2022/04/08 01:21:23;;;;;;;1.95;0.90;;;;;;;;;;4968267;28;20046;-84
2022/04/08 01:23:49;;;;;;;3.10;0.85;;;;;;;;;;4963874;28;20494;-84
2022/04/08 01:26:15;;;;;;;3.67;0.98;;;;;;;;;;4979340;28;20122;-84
2022/04/08 01:28:41;;;;;;;3.22;0.82;;;;;;;;;;4967392;28;20181;-85
2022/04/08 01:31:07;;;;;;;3.83;0.90;;;;;;;;;;4980152;28;20042;-84
2022/04/08 01:33:32;;;;;;;2.95;0.90;;;;;;;;;;4968030;28;20041;-85
2022/04/08 01:35:57;;;;;;;4.70;0.80;;;;;;;;;;4978797;28;20398;-84
2022/04/08 01:38:23;;;;;;;3.58;0.80;;;;;;;;;;4975665;28;20043;-85
2022/04/08 01:40:48;;;;;;;2.67;0.90;;;;;;;;;;4979862;28;20452;-84
2022/04/08 01:43:13;;;;;;;3.53;1.10;;;;;;;;;;4975599;28;20038;-84
2022/04/08 01:45:39;;;;;;;3.65;0.93;;;;;;;;;;4976689;28;20035;-84
2022/04/08 01:48:04;;;;;;;3.63;0.80;;;;;;;;;;4967149;28;20502;-84
2022/04/08 01:50:29;;;;;;;3.95;0.90;;;;;;;;;;4974687;28;20034;-84
2022/04/08 01:52:55;;;;;;;2.63;0.80;;;;;;;;;;4976536;28;20038;-85
2022/04/08 01:55:20;;;;;;;3.47;0.95;;;;;;;;;;4975633;28;20050;-85
2022/04/08 01:57:45;;;;;;;3.28;0.93;;;;;;;;;;4981874;28;20510;-84
2022/04/08 02:00:11;;;;;;;2.15;0.75;;;;;;;;;;4976707;28;20062;-85
2022/04/08 02:02:37;;;;;;;3.83;0.90;;;;;;;;;;4974785;28;20046;-83
2022/04/08 02:05:02;;;;;;;3.47;1.10;;;;;;;;;;4976876;28;20042;-85
2022/04/08 02:07:28;;;;;;;5.45;1.05;;;;;;;;;;4963678;28;20050;-85
2022/04/08 02:09:53;;;;;;;5.93;1.40;;;;;;;;;;4968463;28;20098;-84
2022/04/08 02:12:19;;;;;;;4.45;1.00;;;;;;;;;;4975845;28;20043;-84
2022/04/08 02:14:44;;;;;;;3.65;0.90;;;;;;;;;;4984694;28;20340;-84
2022/04/08 02:17:09;;;;;;;4.47;0.90;;;;;;;;;;4968266;28;20045;-84
2022/04/08 02:19:35;;;;;;;3.80;1.00;;;;;;;;;;4966623;28;20042;-84
2022/04/08 02:22:00;;;;;;;3.13;0.77;;;;;;;;;;4974952;28;20065;-83
2022/04/08 02:24:26;;;;;;;3.92;1.13;;;;;;;;;;4976103;28;20403;-84
2022/04/08 02:26:52;;;;;;;3.05;0.90;;;;;;;;;;4973143;28;20031;-84
2022/04/08 02:29:17;;;;;;;5.00;1.05;;;;;;;;;;4972678;28;20584;-84
2022/04/08 02:31:42;;;;;;;4.47;1.10;;;;;;;;;;4959148;28;20038;-82
2022/04/08 02:34:08;;;;;;;4.85;0.98;;;;;;;;;;4977167;28;20035;-83
2022/04/08 02:36:33;;;;;;;5.05;1.10;;;;;;;;;;4960560;28;20512;-83
2022/04/08 02:38:58;;;;;;;5.38;1.48;;;;;;;;;;4976790;28;20478;-83
2022/04/08 02:41:24;;;;;;;4.30;1.00;;;;;;;;;;4973396;28;20046;-84
2022/04/08 02:43:49;;;;;;;3.63;0.85;;;;;;;;;;4981731;28;20049;-84
2022/04/08 02:46:14;;;;;;;4.55;0.95;;;;;;;;;;4972109;28;21330;-83
2022/04/08 02:48:40;;;;;;;4.22;1.05;;;;;;;;;;4959388;28;20034;-84
2022/04/08 02:51:05;;;;;;;3.30;1.00;;;;;;;;;;4973984;28;20090;-84
2022/04/08 02:53:30;;;;;;;3.83;1.10;;;;;;;;;;4976544;28;20089;-83
2022/04/08 02:55:56;;;;;;;3.58;0.75;;;;;;;;;;4981407;28;20114;-84
2022/04/08 02:58:21;;;;;;;1.98;0.63;;;;;;;;;;4975138;28;20378;-84
2022/04/08 03:00:46;;;;;;;4.82;1.42;;;;;;;;;;4971729;28;20069;-84
2022/04/08 03:03:12;;;;;;;5.63;1.10;;;;;;;;;;4981233;28;20502;-84
2022/04/08 03:05:37;;;;;;;4.15;1.20;;;;;;;;;;4977428;28;20049;-83
2022/04/08 03:08:02;;;;;;;4.90;0.95;;;;;;;;;;4974478;28;20226;-84
2022/04/08 03:10:30;;;;;;;2.78;0.73;;;;;;;;;;4973382;28;20081;-84
2022/04/08 03:12:56;;;;;;;3.20;0.90;;;;;;;;;;4974753;28;20038;-84
2022/04/08 03:15:21;;;;;;;3.60;0.90;;;;;;;;;;4974457;28;20050;-84
2022/04/08 03:17:49;;;;;;;2.30;0.70;;;;;;;;;;4975963;28;20038;-83
2022/04/08 03:20:14;;;;;;;;;;;;;;;;;;4962484;28;20045;-83
2022/04/08 03:22:39;;;;;;;2.50;0.70;;;;;;;;;;4977415;28;19922;-86
2022/04/08 03:25:05;;;;;;;4.75;0.80;;;;;;;;;;4972332;28;20062;-85
2022/04/08 03:27:31;;;;;;;2.42;0.80;;;;;;;;;;4965064;28;20097;-85
2022/04/08 03:29:56;;;;;;;2.60;0.90;;;;;;;;;;4963544;28;20031;-85
2022/04/08 03:32:22;;;;;;;2.25;0.70;;;;;;;;;;4974098;28;20034;-85
2022/04/08 03:34:57;;;;;;;2.67;0.80;;;;;;;;;;4972893;28;20035;-85
2022/04/08 03:37:26;;;;;;;3.40;0.93;;;;;;;;;;4974390;28;20077;-85
2022/04/08 03:39:51;;;;;;;3.35;0.90;;;;;;;;;;4976419;28;20038;-84
2022/04/08 03:42:16;;;;;;;2.80;0.75;;;;;;;;;;4958383;28;20057;-83
2022/04/08 03:44:41;;;;;;;4.82;0.90;;;;;;;;;;4980462;28;20120;-84
2022/04/08 03:47:07;;;;;;;2.30;1.00;;;;;;;;;;4960974;28;20391;-83
2022/04/08 03:49:35;;;;;;;3.55;0.90;;;;;;;;;;4976539;28;20034;-83
2022/04/08 03:52:04;;;;;;;2.78;0.90;;;;;;;;;;4959632;28;20034;-83
2022/04/08 03:54:29;;;;;;;2.25;0.70;;;;;;;;;;4973090;28;20117;-83
2022/04/08 03:56:55;;;;;;;3.90;0.80;;;;;;;;;;4970148;28;20150;-85
2022/04/08 03:59:22;;;;;;;2.80;0.75;;;;;;;;;;4961378;28;20109;-85
2022/04/08 04:01:47;;;;;;;3.13;0.88;;;;;;;;;;4958746;28;20105;-81
2022/04/08 04:04:12;;;;;;;3.20;1.00;;;;;;;;;;4983056;28;20041;-81
2022/04/08 04:06:38;;;;;;;4.00;0.98;;;;;;;;;;4978953;28;20113;-81
2022/04/08 04:09:03;;;;;;;3.70;1.10;;;;;;;;;;4973563;28;20039;-81
2022/04/08 04:11:29;;;;;;;3.22;0.88;;;;;;;;;;4975667;28;20431;-82
2022/04/08 04:13:54;;;;;;;2.45;1.00;;;;;;;;;;4979393;28;20034;-83
2022/04/08 04:16:19;;;;;;;3.85;1.10;;;;;;;;;;4977900;28;20034;-82
2022/04/08 04:18:44;;;;;;;2.45;0.88;;;;;;;;;;4979273;28;20414;-83
2022/04/08 04:21:12;;;;;;;3.80;0.90;;;;;;;;;;4977064;28;20046;-83
2022/04/08 04:23:37;;;;;;;2.13;0.80;;;;;;;;;;4978428;28;20043;-83
2022/04/08 04:26:03;;;;;;;2.25;0.73;;;;;;;;;;4964127;28;20478;-86
2022/04/08 04:28:29;;;;;;;2.95;0.77;;;;;;;;;;4969622;28;20473;-84
2022/04/08 04:30:55;;;;;;;2.13;0.70;;;;;;;;;;4970010;28;20034;-84
2022/04/08 04:33:20;;;;;;;2.63;0.77;;;;;;;;;;4982496;28;20041;-84
2022/04/08 04:35:45;;;;;;;2.72;1.05;;;;;;;;;;4978779;28;20036;-83
2022/04/08 04:38:11;;;;;;;3.30;1.20;;;;;;;;;;4978671;28;20042;-83
2022/04/08 04:40:36;;;;;;;2.90;0.80;;;;;;;;;;4977795;28;20038;-81
2022/04/08 04:43:01;;;;;;;4.35;0.77;;;;;;;;;;4977831;28;20387;-83
2022/04/08 04:45:27;;;;;;;3.05;0.80;;;;;;;;;;4974387;28;20038;-82
2022/04/08 04:47:54;;;;;;;2.65;0.70;;;;;;;;;;4980907;28;20041;-83
2022/04/08 04:50:20;;;;;;;;;;;;;;;;;;4977434;28;20693;-79
2022/04/08 04:52:45;;;;;;;2.97;0.80;;;;;;;;;;4976523;28;19925;-81
2022/04/08 04:55:10;;;;;;;3.55;1.00;;;;;;;;;;4978282;28;20053;-81
2022/04/08 04:57:35;;;;;;;3.55;0.90;;;;;;;;;;4976205;28;20118;-83
2022/04/08 05:00:03;;;;;;;3.15;1.00;;;;;;;;;;4978084;28;20498;-81
2022/04/08 05:02:28;;;;;;;2.28;1.00;;;;;;;;;;4983918;28;20381;-79
2022/04/08 05:04:53;;;;;;;3.28;1.00;;;;;;;;;;4974921;28;20114;-80
2022/04/08 05:07:19;;;;;;;3.00;1.27;;;;;;;;;;4976114;28;20051;-81
2022/04/08 05:09:44;;;;;;;4.20;1.02;;;;;;;;;;4982086;28;20034;-81
2022/04/08 05:12:09;;;;;;;4.18;0.93;;;;;;;;;;4961234;28;20038;-82
2022/04/08 05:14:35;;;;;;;3.08;0.95;;;;;;;;;;4979326;28;20075;-80
2022/04/08 05:17:00;;;;;;;4.25;0.90;;;;;;;;;;4976404;28;20786;-81
2022/04/08 05:19:26;;;;;;;4.38;1.10;;;;;;;;;;4982335;28;20135;-82
2022/04/08 05:21:52;;;;;;;3.75;0.90;;;;;;;;;;4975343;28;20085;-82
2022/04/08 05:24:18;;;;;;;3.20;0.75;;;;;;;;;;4967027;28;20038;-82
2022/04/08 05:26:44;;;;;;;2.53;0.70;;;;;;;;;;4976761;28;20042;-80
2022/04/08 05:29:09;;;;;;;3.38;0.90;;;;;;;;;;4974362;28;20081;-81
2022/04/08 05:31:34;;;;;;;2.38;0.73;;;;;;;;;;4976133;28;20030;-81
2022/04/08 05:33:59;;;;;;;2.63;0.88;;;;;;;;;;4975341;28;20070;-81
2022/04/08 05:36:25;;;;;;;4.43;0.98;;;;;;;;;;4976099;28;20430;-81
2022/04/08 05:38:50;;;;;;;2.58;0.80;;;;;;;;;;4978084;28;20034;-82
2022/04/08 05:41:15;;;;;;;3.30;0.90;;;;;;;;;;4975439;28;20038;-81
2022/04/08 05:43:44;;;;;;;2.75;1.00;;;;;;;;;;4976030;28;20100;-81
2022/04/08 05:46:10;;;;;;;4.30;1.00;;;;;;;;;;4975061;28;20031;-82
2022/04/08 05:48:35;;;;;;;3.55;1.00;;;;;;;;;;4966825;28;20039;-82
2022/04/08 05:51:00;;;;;;;5.28;1.10;;;;;;;;;;4974241;28;20061;-81
2022/04/08 05:53:26;;;;;;;3.60;1.10;;;;;;;;;;4966920;28;20042;-80
2022/04/08 05:55:52;;;;;;;2.80;0.98;;;;;;;;;;4974525;28;20089;-80
2022/04/08 05:58:17;;;;;;;4.60;1.10;;;;;;;;;;4973694;28;20086;-81
2022/04/08 06:00:43;;;;;;;3.10;0.90;;;;;;;;;;4959680;28;20069;-83
2022/04/08 06:03:08;;;;;;;3.75;0.90;;;;;;;;;;4974324;28;20117;-82
2022/04/08 06:05:33;;;;;;;2.65;0.82;;;;;;;;;;4960062;28;20073;-81
2022/04/08 06:07:59;;;;;;;3.42;1.00;;;;;;;;;;4977810;28;20035;-82
2022/04/08 06:10:25;;;;;;;3.97;1.13;;;;;;;;;;4975221;28;20109;-82
2022/04/08 06:12:52;;;;;;;3.47;1.03;;;;;;;;;;4954767;28;20049;-82
2022/04/08 06:15:18;;;;;;;4.68;1.08;;;;;;;;;;4960231;28;20278;-82
2022/04/08 06:17:43;;;;;;;3.13;1.00;;;;;;;;;;4966562;28;20043;-84
2022/04/08 06:20:10;;;;;;;4.22;0.95;;;;;;;;;;4973029;28;20494;-81
2022/04/08 06:22:40;;;;;;;2.80;0.85;;;;;;;;;;4974318;28;20046;-83
2022/04/08 06:25:07;;;;;;;3.67;1.00;;;;;;;;;;4974822;28;20042;-82
2022/04/08 06:27:33;;;;;;;3.17;0.77;;;;;;;;;;4974214;28;20112;-82
2022/04/08 06:29:58;;;;;;;4.90;0.90;;;;;;;;;;4977240;28;20107;-82
2022/04/08 06:32:23;;;;;;;3.95;1.10;;;;;;;;;;4975499;28;20046;-83
2022/04/08 06:34:48;;;;;;;4.78;1.00;;;;;;;;;;4976802;28;20548;-83
2022/04/08 06:37:14;;;;;;;3.08;0.93;;;;;;;;;;4977289;28;20054;-82
2022/04/08 06:39:39;;;;;;;4.13;0.90;;;;;;;;;;4975991;28;20038;-83
2022/04/08 06:42:04;;;;;;;2.83;0.90;;;;;;;;;;4973267;28;20069;-83
2022/04/08 06:44:30;;;;;;;2.75;0.80;;;;;;;;;;4974909;28;20072;-82
2022/04/08 06:46:55;;;;;;;3.15;0.85;;;;;;;;;;4974656;28;20043;-83
2022/04/08 06:49:20;;;;;;;3.13;0.88;;;;;;;;;;4975574;28;20121;-83
2022/04/08 06:51:46;;;;;;;4.03;0.90;;;;;;;;;;4974806;28;20035;-84
2022/04/08 06:54:11;;;;;;;2.90;0.60;;;;;;;;;;4976101;28;20038;-83
2022/04/08 06:56:36;;;;;;;2.55;0.50;;;;;;;;;;4975152;28;20333;-83
2022/04/08 06:59:02;;;;;;;3.33;0.70;;;;;;;;;;4975517;28;20145;-83
2022/04/08 07:01:27;;;;;;;4.43;0.90;;;;;;;;;;4962166;28;20031;-82
2022/04/08 07:03:52;;;;;;;3.50;0.80;;;;;;;;;;4973406;28;20041;-82
2022/04/08 07:06:17;;;;;;;4.65;0.90;;;;;;;;;;4973350;28;20051;-82
2022/04/08 07:08:43;;;;;;;5.60;0.90;;;;;;;;;;4975830;28;20479;-82
2022/04/08 07:11:09;;;;;;;4.38;0.85;;;;;;;;;;4966159;28;20039;-83
2022/04/08 07:13:37;;;;;;;4.80;0.85;;;;;;;;;;4964466;28;20483;-82
2022/04/08 07:16:03;;;;;;;4.22;0.95;;;;;;;;;;4978614;28;20117;-82
2022/04/08 07:18:28;;;;;;;5.75;1.10;;;;;;;;;;4975644;28;20121;-82
2022/04/08 07:20:53;;;;;;;3.08;0.80;;;;;;;;;;4973984;28;20088;-80
2022/04/08 07:23:19;;;;;;;3.90;0.85;;;;;;;;;;4972225;28;20038;-82
2022/04/08 07:25:44;;;;;;;2.75;0.90;;;;;;;;;;4973376;28;20038;-80
2022/04/08 07:28:10;;;;;;;4.05;1.30;;;;;;;;;;4960164;28;20085;-83
2022/04/08 07:30:35;;;;;;;4.13;0.90;;;;;;;;;;4972425;28;20042;-81
2022/04/08 07:33:03;;;;;;;4.18;1.00;;;;;;;;;;4975461;28;20094;-82
2022/04/08 07:35:33;;;;;;;2.28;0.70;;;;;;;;;;4977523;28;20065;-81
2022/04/08 07:37:59;;;;;;;5.00;1.00;;;;;;;;;;4961752;28;20053;-81
2022/04/08 07:40:26;;;;;;;5.43;0.80;;;;;;;;;;4965291;28;20042;-81
2022/04/08 07:42:52;;;;;;;6.45;1.45;;;;;;;;;;4955542;28;20517;-82
2022/04/08 07:45:17;;;;;;;4.70;0.90;;;;;;;;;;4959741;28;20027;-80
2022/04/08 07:47:43;;;;;;;3.85;1.00;;;;;;;;;;4959949;28;20043;-81
2022/04/08 07:50:11;;;;;;;4.60;1.23;;;;;;;;;;4960297;28;20031;-82
2022/04/08 07:52:37;;;;;;;5.55;1.13;;;;;;;;;;4962484;28;20554;-81
2022/04/08 07:55:03;;;;;;;4.35;0.90;;;;;;;;;;4966441;28;20034;-82
2022/04/08 07:57:29;;;;;;;6.07;1.15;;;;;;;;;;4967021;28;20037;-82
2022/04/08 07:59:54;;;;;;;4.78;1.20;;;;;;;;;;4972557;28;20721;-82
2022/04/08 08:02:19;;;;;;;4.47;1.00;;;;;;;;;;4977424;28;20177;-82
2022/04/08 08:04:45;;;;;;;6.13;1.38;;;;;;;;;;4981085;28;20545;-81
2022/04/08 08:07:10;;;;;;;5.07;1.38;;;;;;;;;;4969283;28;20054;-82
2022/04/08 08:09:36;;;;;;;6.82;1.15;;;;;;;;;;4980006;28;20041;-82
2022/04/08 08:12:02;;;;;;;5.88;1.30;;;;;;;;;;4980633;28;20401;-82
2022/04/08 08:14:28;;;;;;;4.45;1.00;;;;;;;;;;4981801;28;20046;-82
2022/04/08 08:16:53;;;;;;;6.05;1.33;;;;;;;;;;4981979;28;20042;-81
2022/04/08 08:19:18;;;;;;;4.78;1.00;;;;;;;;;;4976985;28;20045;-81
2022/04/08 08:21:44;;;;;;;4.47;1.00;;;;;;;;;;4970652;28;20114;-81
2022/04/08 08:24:09;;;;;;;6.47;1.10;;;;;;;;;;4981124;28;20045;-82
2022/04/08 08:26:34;;;;;;;9.23;1.13;;;;;;;;;;4978642;28;20494;-81
2022/04/08 08:29:00;;;;;;;7.32;1.10;;;;;;;;;;4987447;28;20034;-84
2022/04/08 08:31:25;;;;;;;6.22;1.20;;;;;;;;;;4980028;28;20457;-81
2022/04/08 08:33:50;;;;;;;6.25;1.23;;;;;;;;;;4980462;28;20072;-81
2022/04/08 08:36:16;;;;;;;8.32;1.13;;;;;;;;;;4984866;28;20038;-81
2022/04/08 08:38:42;;;;;;;10.45;1.08;;;;;;;;;;4986381;28;20393;-83
2022/04/08 08:41:08;;;;;;;8.27;1.23;;;;;;;;;;4965227;28;20489;-82
2022/04/08 08:43:34;;;;;;;8.98;1.35;;;;;;;;;;4959085;28;20031;-83
2022/04/08 08:46:01;;;;;;;8.13;1.20;;;;;;;;;;4966097;28;20514;-81
2022/04/08 08:48:27;;;;;;;7.18;1.10;;;;;;;;;;4970070;28;20038;-82
2022/04/08 08:50:54;;;;;;;7.78;1.55;;;;;;;;;;4985700;28;20097;-84
2022/04/08 08:53:20;;;;;;;7.32;1.45;;;;;;;;;;4978679;28;20647;-83
2022/04/08 08:55:48;;;;;;;8.43;1.20;;;;;;;;;;4970234;28;20042;-82
2022/04/08 08:58:14;;;;;;;6.75;1.45;;;;;;;;;;4982481;28;20077;-83
2022/04/08 09:00:39;;;;;;;6.90;1.33;;;;;;;;;;4976410;28;20043;-83
2022/04/08 09:03:05;;;;;;;9.75;1.45;;;;;;;;;;4978124;28;20072;-82
2022/04/08 09:05:30;;;;;;;6.28;1.20;;;;;;;;;;4974354;28;20039;-82
2022/04/08 09:07:59;;;;;;;7.22;1.42;;;;;;;;;;4961618;28;20205;-83
2022/04/08 09:10:29;;;;;;;7.18;1.25;;;;;;;;;;4983060;28;20379;-83
2022/04/08 09:12:55;;;;;;;8.70;1.42;;;;;;;;;;4960580;28;20043;-84
2022/04/08 09:15:21;;;;;;;10.65;1.55;;;;;;;;;;4964678;28;20418;-81
2022/04/08 09:17:46;;;;;;;7.55;1.23;;;;;;;;;;4967595;28;20060;-83
2022/04/08 09:20:12;;;;;;;6.40;1.15;;;;;;;;;;4974586;28;20235;-81
2022/04/08 09:22:37;;;;;;;6.38;1.30;;;;;;;;;;4967346;28;20442;-82
2022/04/08 09:25:10;;;;;;;7.55;1.70;;;;;;;;;;4954599;28;20047;-83
2022/04/08 09:27:37;;;;;;;6.47;1.35;;;;;;;;;;4974823;28;20035;-81
2022/04/08 09:30:03;;;;;;;6.60;1.30;;;;;;;;;;4975879;28;20495;-82
2022/04/08 09:32:28;;;;;;;6.55;1.33;;;;;;;;;;4974443;28;20085;-81
2022/04/08 09:34:53;;;;;;;9.73;1.60;;;;;;;;;;4976889;28;20062;-82
2022/04/08 09:37:19;;;;;;;6.05;1.27;;;;;;;;;;4966432;28;20031;-84
2022/04/08 09:39:57;;;;;;;8.18;1.70;;;;;;;;;;4976461;28;20038;-80
2022/04/08 09:42:43;;;;;;;7.07;1.25;;;;;;;;;;4974151;28;20030;-82
2022/04/08 09:45:10;;;;;;;6.95;1.40;;;;;;;;;;4947442;28;20562;-80
2022/04/08 09:47:36;;;;;;;7.50;1.40;;;;;;;;;;4941843;28;20042;-81
2022/04/08 09:50:02;;;;;;;6.30;1.13;;;;;;;;;;4947436;28;20041;-81
2022/04/08 09:52:28;;;;;;;4.53;1.10;;;;;;;;;;4960331;28;20054;-81
2022/04/08 09:54:54;;;;;;;6.13;1.00;;;;;;;;;;4983232;28;20035;-82
2022/04/08 09:57:19;;;;;;;9.43;1.23;;;;;;;;;;4974596;28;20042;-82
2022/04/08 09:59:56;;;;;;;6.10;1.10;;;;;;;;;;4965751;28;20038;-82
2022/04/08 10:02:26;;;;;;;5.70;1.00;;;;;;;;;;4939418;28;20047;-81
2022/04/08 10:04:52;;;;;;;5.32;1.08;;;;;;;;;;4958164;28;20046;-81
2022/04/08 10:07:18;;;;;;;8.10;1.17;;;;;;;;;;4957224;28;20043;-82
2022/04/08 10:10:29;;;;;;;6.63;1.10;;;;;;;;;;4957640;28;20441;-81
2022/04/08 10:13:04;;;;;;;5.32;1.00;;;;;;;;;;4980011;28;20047;-80
2022/04/08 10:15:40;;;;;;;6.68;1.30;;;;;;;;;;4981208;28;20595;-82
2022/04/08 10:18:06;;;;;;;6.80;0.90;;;;;;;;;;4974510;28;20034;-81
2022/04/08 10:20:35;;;;;;;5.75;1.00;;;;;;;;;;4977160;28;20508;-81
2022/04/08 10:23:11;;;;;;;7.18;1.00;;;;;;;;;;4966264;28;20046;-81
2022/04/08 10:25:42;;;;;;;4.50;1.00;;;;;;;;;;4980649;28;20414;-81
2022/04/08 10:28:08;;;;;;;5.95;0.90;;;;;;;;;;4980438;28;20041;-83
2022/04/08 10:30:44;;;;;;;4.63;0.85;;;;;;;;;;4973091;28;20039;-83
2022/04/08 10:33:12;;;;;;;4.70;0.95;;;;;;;;;;4975124;28;20030;-83
2022/04/08 10:35:38;;;;;;;3.88;0.70;;;;;;;;;;4975566;28;21052;-83
2022/04/08 10:38:05;;;;;;;4.15;0.90;;;;;;;;;;4973178;28;20034;-83
2022/04/08 10:40:36;;;;;;;4.43;0.93;;;;;;;;;;4975452;28;20117;-83
2022/04/08 10:43:07;;;;;;;4.03;0.80;;;;;;;;;;4974883;28;20753;-82
2022/04/08 10:45:32;;;;;;;5.18;0.90;;;;;;;;;;4980442;28;20143;-82
2022/04/08 10:48:06;;;;;;;5.65;1.35;;;;;;;;;;4972777;28;20125;-81
2022/04/08 10:50:34;;;;;;;5.00;0.73;;;;;;;;;;4979890;28;20041;-83
2022/04/08 10:53:09;;;;;;;6.45;0.70;;;;;;;;;;4962296;28;20126;-84
2022/04/08 10:55:55;;;;;;;6.32;0.77;;;;;;;;;;4979393;28;20043;-83
2022/04/08 10:58:38;;;;;;;3.70;0.80;;;;;;;;;;4975139;28;20037;-82
2022/04/08 11:01:22;;;;;;;5.60;1.30;;;;;;;;;;4972606;28;20486;-85
2022/04/08 11:04:02;;;;;;;4.90;0.95;;;;;;;;;;4974066;28;20399;-84
2022/04/08 11:06:28;;;;;;;5.90;1.25;;;;;;;;;;4971086;28;20042;-83
2022/04/08 11:08:54;;;;;;;3.95;0.90;;;;;;;;;;4981444;28;20093;-84
2022/04/08 11:11:32;;;;;;;7.28;1.08;;;;;;;;;;4981065;28;20474;-85
2022/04/08 11:13:58;;;;;;;5.18;1.35;;;;;;;;;;4972924;28;20494;-84
2022/04/08 11:16:28;;;;;;;5.68;0.90;;;;;;;;;;4972839;28;20113;-82
2022/04/08 11:18:56;;;;;;;5.13;1.17;;;;;;;;;;4973774;28;20049;-82
2022/04/08 11:21:23;;;;;;;6.15;1.10;;;;;;;;;;4972889;28;20880;-81
2022/04/08 11:24:09;;;;;;;6.10;0.90;;;;;;;;;;4973251;28;20039;-84
2022/04/08 11:26:48;;;;;;;6.90;1.10;;;;;;;;;;4956526;28;20038;-81
2022/04/08 11:29:24;;;;;;;4.57;0.80;;;;;;;;;;4963776;28;20034;-81
2022/04/08 11:31:51;;;;;;;3.28;0.90;;;;;;;;;;4980901;28;20833;-82
2022/04/08 11:34:17;;;;;;;4.38;1.20;;;;;;;;;;4981096;28;20038;-83
2022/04/08 11:36:44;;;;;;;3.35;0.90;;;;;;;;;;4973935;28;20035;-82
2022/04/08 11:39:13;;;;;;;3.42;0.73;;;;;;;;;;4980828;28;20062;-81
2022/04/08 11:41:38;;;;;;;4.80;1.10;;;;;;;;;;4979427;28;20035;-82
2022/04/08 11:44:12;;;;;;;3.75;0.98;;;;;;;;;;4972554;28;20089;-82
2022/04/08 11:46:37;;;;;;;3.25;0.90;;;;;;;;;;4972071;28;20047;-82
2022/04/08 11:49:03;;;;;;;4.65;1.00;;;;;;;;;;4975396;28;20042;-83
2022/04/08 11:51:28;;;;;;;3.17;0.93;;;;;;;;;;4971834;28;20549;-84
2022/04/08 11:54:00;;;;;;;6.78;1.08;;;;;;;;;;4973762;28;20093;-83
2022/04/08 11:56:37;;;;;;;4.78;0.98;;;;;;;;;;4971450;28;20442;-82
2022/04/08 11:59:11;;;;;;;5.47;1.20;;;;;;;;;;4962328;28;20030;-83
2022/04/08 12:01:40;;;;;;;4.68;1.20;;;;;;;;;;4971991;28;20038;-84
2022/04/08 12:04:08;;;;;;;4.60;1.27;;;;;;;;;;4972226;28;20031;-82
2022/04/08 12:06:49;;;;;;;4.20;1.25;;;;;;;;;;4978637;28;20193;-82
2022/04/08 12:09:22;;;;;;;4.18;1.20;;;;;;;;;;4974187;28;20050;-82
2022/04/08 12:11:57;;;;;;;5.55;1.10;;;;;;;;;;4980533;28;20101;-83
2022/04/08 12:14:23;;;;;;;6.35;1.17;;;;;;;;;;4979603;28;20390;-83
2022/04/08 12:16:48;;;;;;;5.70;1.00;;;;;;;;;;4971702;28;20039;-81
2022/04/08 12:19:16;;;;;;;5.60;1.20;;;;;;;;;;4964700;28;20039;-81
2022/04/08 12:21:43;;;;;;;6.47;1.35;;;;;;;;;;4971613;28;20069;-81
2022/04/08 12:24:08;;;;;;;6.28;1.40;;;;;;;;;;4971955;28;20037;-81
2022/04/08 12:26:35;;;;;;;5.80;1.15;;;;;;;;;;4979696;28;20034;-81
2022/04/08 12:29:07;;;;;;;6.57;1.20;;;;;;;;;;4960278;28;20035;-81
2022/04/08 12:31:34;;;;;;;4.68;1.30;;;;;;;;;;4979642;28;20137;-82
2022/04/08 12:34:02;;;;;;;5.90;1.30;;;;;;;;;;4974397;28;20054;-81
2022/04/08 12:36:28;;;;;;;4.50;1.35;;;;;;;;;;4981861;28;20494;-81
2022/04/08 12:38:53;;;;;;;7.07;1.27;;;;;;;;;;4975814;28;20042;-81
2022/04/08 12:41:19;;;;;;;6.22;1.60;;;;;;;;;;4975986;28;20478;-81
2022/04/08 12:43:44;;;;;;;4.43;1.05;;;;;;;;;;4977465;28;20085;-80
2022/04/08 12:46:09;;;;;;;5.38;1.13;;;;;;;;;;4982185;28;20031;-81
2022/04/08 12:48:35;;;;;;;5.05;1.27;;;;;;;;;;4977439;28;20042;-81
2022/04/08 12:51:01;;;;;;;7.90;1.83;;;;;;;;;;4959095;28;20050;-81
2022/04/08 12:53:29;;;;;;;6.80;1.15;;;;;;;;;;4964224;28;20050;-81
2022/04/08 12:55:57;;;;;;;6.15;1.40;;;;;;;;;;4967841;28;20038;-81
2022/04/08 12:58:22;;;;;;;5.90;1.30;;;;;;;;;;4974785;28;20086;-81
2022/04/08 13:00:48;;;;;;;5.03;0.95;;;;;;;;;;4976454;28;20034;-82
2022/04/08 13:03:14;;;;;;;5.20;1.30;;;;;;;;;;4977051;28;20038;-81
2022/04/08 13:05:39;;;;;;;4.80;1.38;;;;;;;;;;4976381;28;20117;-80
2022/04/08 13:08:05;;;;;;;3.38;1.15;;;;;;;;;;4979425;28;20155;-82
2022/04/08 13:10:30;;;;;;;4.32;1.13;;;;;;;;;;4977447;28;20042;-83
2022/04/08 13:12:55;;;;;;;5.50;1.10;;;;;;;;;;4963207;28;20118;-84
2022/04/08 13:15:20;;;;;;;3.90;1.13;;;;;;;;;;4965414;28;20422;-84
2022/04/08 13:17:46;;;;;;;3.58;1.05;;;;;;;;;;4979795;28;20501;-83
2022/04/08 13:20:15;;;;;;;7.82;1.60;;;;;;;;;;4975197;28;20054;-83
2022/04/08 13:22:41;;;;;;;7.43;1.20;;;;;;;;;;4982084;28;20170;-83
2022/04/08 13:25:09;;;;;;;5.97;1.20;;;;;;;;;;4975399;28;20035;-84
2022/04/08 13:27:34;;;;;;;6.47;1.30;;;;;;;;;;4977803;28;20113;-84
2022/04/08 13:30:00;;;;;;;5.10;1.13;;;;;;;;;;4977082;28;20117;-79
2022/04/08 13:32:25;;;;;;;6.88;1.35;;;;;;;;;;4981263;28;20041;-81
2022/04/08 13:34:53;;;;;;;6.63;1.15;;;;;;;;;;4975108;28;20088;-80
2022/04/08 13:37:19;;;;;;;5.15;1.20;;;;;;;;;;4975696;28;20054;-80
2022/04/08 13:39:45;;;;;;;5.38;1.10;;;;;;;;;;4957994;28;20546;-81
2022/04/08 13:42:10;;;;;;;6.15;1.30;;;;;;;;;;4975009;28;20042;-81
2022/04/08 13:44:35;;;;;;;5.47;1.17;;;;;;;;;;4975881;28;20042;-81
2022/04/08 13:47:02;;;;;;;5.97;1.20;;;;;;;;;;4962695;28;20041;-80
2022/04/08 13:49:27;;;;;;;3.60;1.13;;;;;;;;;;4975751;28;21054;-81
2022/04/08 13:51:53;;;;;;;8.68;1.52;;;;;;;;;;4974262;28;20022;-80
2022/04/08 13:54:18;;;;;;;5.53;1.48;;;;;;;;;;4976265;28;20042;-81
2022/04/08 13:56:44;;;;;;;6.00;1.00;;;;;;;;;;4976713;28;20034;-81
2022/04/08 13:59:09;;;;;;;4.60;1.10;;;;;;;;;;4976743;28;20038;-81
2022/04/08 14:01:37;;;;;;;7.10;1.50;;;;;;;;;;4980287;28;20467;-80
2022/04/08 14:04:03;;;;;;;5.45;1.23;;;;;;;;;;4976053;28;20596;-80
2022/04/08 14:06:29;;;;;;;5.60;1.10;;;;;;;;;;4974906;28;20049;-79
2022/04/08 14:08:54;;;;;;;6.72;1.75;;;;;;;;;;4975384;28;20042;-80
2022/04/08 14:11:20;;;;;;;6.63;1.25;;;;;;;;;;4972557;28;20038;-81
2022/04/08 14:13:45;;;;;;;5.03;1.52;;;;;;;;;;4965831;28;20053;-81
2022/04/08 14:16:10;;;;;;;4.82;1.13;;;;;;;;;;4977260;28;20054;-82
2022/04/08 14:18:35;;;;;;;8.52;1.65;;;;;;;;;;4966951;28;20559;-81
2022/04/08 14:21:02;;;;;;;6.18;1.40;;;;;;;;;;4962747;28;20490;-81
2022/04/08 14:23:28;;;;;;;6.65;1.50;;;;;;;;;;4976091;28;20038;-81
2022/04/08 14:25:53;;;;;;;4.40;1.20;;;;;;;;;;4975991;28;20038;-80
2022/04/08 14:28:18;;;;;;;5.47;1.23;;;;;;;;;;4975920;28;20034;-82
2022/04/08 14:30:44;;;;;;;5.75;1.35;;;;;;;;;;4966228;28;20039;-82
2022/04/08 14:33:12;;;;;;;4.80;1.33;;;;;;;;;;4974202;28;20045;-82
2022/04/08 14:35:37;;;;;;;6.25;1.38;;;;;;;;;;4961591;28;20038;-81
2022/04/08 14:38:03;;;;;;;6.28;1.40;;;;;;;;;;4973665;28;20038;-81
2022/04/08 14:40:28;;;;;;;5.72;1.20;;;;;;;;;;4974598;28;20584;-81